Time;durP1;ratioP1;P1;durP2;ratioP2;P2;SDS_P1;SDS_P2;PMS_P1;PMS_P2;Temp;Humidity;BMP_temperature;BMP_pressure;BME280_temperature;BME280_humidity;BME280_pressure;Samples;Min_cycle;Max_cycle;Signal;HPM_P1;HPM_P2
2023/11/22 00:04:51;;;;;;;;;;;;;;;17.65;51.08;100616.66;10328945;28;840;-70
2023/11/22 00:09:47;;;;;;;;;;;;;;;17.62;51.12;100612.34;10328742;28;918;-70
2023/11/22 00:14:43;;;;;;;;;;;;;;;17.62;51.15;100619.38;10327834;28;1957;-71
2023/11/22 00:19:40;;;;;;;;;;;;;;;17.62;51.06;100628.16;10327777;28;814;-71
2023/11/22 00:24:36;;;;;;;;;;;;;;;17.65;51.00;100627.19;10327584;28;791;-70
2023/11/22 00:29:32;;;;;;;;;;;;;;;17.62;51.09;100633.41;10327351;28;893;-71
2023/11/22 00:34:27;;;;;;;;;;;;;;;17.59;50.98;100637.94;10327450;28;1985;-70
2023/11/22 00:39:23;;;;;;;;;;;;;;;17.59;51.20;100638.78;10325682;28;929;-70
2023/11/22 00:44:19;;;;;;;;;;;;;;;17.59;50.92;100645.84;10327386;28;869;-71
2023/11/22 00:49:15;;;;;;;;;;;;;;;17.60;51.04;100642.28;10326591;28;914;-71
2023/11/22 00:54:11;;;;;;;;;;;;;;;17.58;50.97;100642.34;10326366;28;1905;-70
2023/11/22 00:59:07;;;;;;;;;;;;;;;17.54;51.11;100645.97;10326284;28;771;-71
2023/11/22 01:04:03;;;;;;;;;;;;;;;17.53;51.13;100653.00;10326074;28;1715;-71
2023/11/22 01:08:58;;;;;;;;;;;;;;;17.55;51.17;100649.44;10326103;28;922;-71
2023/11/22 01:13:54;;;;;;;;;;;;;;;17.52;51.20;100653.91;10325827;28;1951;-71
2023/11/22 01:18:52;;;;;;;;;;;;;;;17.51;51.14;100657.44;10326606;28;921;-71
2023/11/22 01:23:48;;;;;;;;;;;;;;;17.50;51.26;100660.13;10325599;28;853;-71
2023/11/22 01:28:44;;;;;;;;;;;;;;;17.50;51.32;100657.47;10325755;28;1031;-71
2023/11/22 01:33:40;;;;;;;;;;;;;;;17.50;51.15;100668.03;10325569;28;1977;-70
2023/11/22 01:38:39;;;;;;;;;;;;;;;17.49;51.13;100664.53;10325339;28;822;-70
2023/11/22 01:43:34;;;;;;;;;;;;;;;17.47;51.16;100663.69;10325382;28;764;-70
2023/11/22 01:48:32;;;;;;;;;;;;;;;17.47;51.32;100682.16;10325169;28;909;-70
2023/11/22 01:53:27;;;;;;;;;;;;;;;17.45;51.18;100689.25;10333293;28;1902;-70
2023/11/22 01:58:23;;;;;;;;;;;;;;;17.46;51.22;100684.84;10333498;28;944;-70
2023/11/22 02:03:20;;;;;;;;;;;;;;;17.44;51.26;100687.50;10333120;28;802;-70
2023/11/22 02:08:18;;;;;;;;;;;;;;;17.44;51.04;100697.19;10333123;28;763;-70
2023/11/22 02:13:14;;;;;;;;;;;;;;;17.41;51.21;100700.78;10332646;28;1975;-70
2023/11/22 02:18:10;;;;;;;;;;;;;;;17.41;51.16;100718.38;10332458;28;898;-70
2023/11/22 02:23:06;;;;;;;;;;;;;;;17.41;51.16;100715.72;10332449;28;789;-70
2023/11/22 02:28:05;;;;;;;;;;;;;;;17.40;51.12;100730.69;10332121;28;1008;-70
2023/11/22 02:33:00;;;;;;;;;;;;;;;17.38;51.08;100734.25;10331879;28;1977;-70
2023/11/22 02:37:56;;;;;;;;;;;;;;;17.36;51.07;100743.97;10331731;28;802;-70
2023/11/22 02:42:52;;;;;;;;;;;;;;;17.38;51.08;100744.81;10330960;28;900;-70
2023/11/22 02:47:49;;;;;;;;;;;;;;;17.38;51.06;100750.94;10331449;28;798;-71
2023/11/22 02:52:45;;;;;;;;;;;;;;;17.38;51.11;100750.94;10331259;28;803;-70
2023/11/22 02:57:41;;;;;;;;;;;;;;;17.35;51.28;100756.28;10330875;28;1894;-70
2023/11/22 03:02:37;;;;;;;;;;;;;;;17.37;51.01;100750.97;10330180;28;842;-70
2023/11/22 03:07:32;;;;;;;;;;;;;;;17.38;50.86;100753.56;10330681;28;827;-70
2023/11/22 03:12:28;;;;;;;;;;;;;;;17.35;51.09;100753.66;10331126;28;920;-71
2023/11/22 03:17:24;;;;;;;;;;;;;;;17.35;50.99;100750.16;10330867;28;1947;-70
2023/11/22 03:22:20;;;;;;;;;;;;;;;17.35;50.95;100774.72;10329768;28;1110;-70
2023/11/22 03:27:16;;;;;;;;;;;;;;;17.37;50.93;100772.03;10329936;28;891;-70
2023/11/22 03:32:12;;;;;;;;;;;;;;;17.35;50.78;100776.50;10329726;28;1102;-71
2023/11/22 03:37:08;;;;;;;;;;;;;;;17.33;50.92;100773.03;10329985;28;1913;-71
2023/11/22 03:42:04;;;;;;;;;;;;;;;17.33;51.00;100778.31;10329397;28;904;-71
2023/11/22 03:47:00;;;;;;;;;;;;;;;17.34;50.78;100791.44;10329188;28;849;-71
2023/11/22 03:51:56;;;;;;;;;;;;;;;17.35;50.73;100797.59;10329758;28;900;-70
2023/11/22 03:56:52;;;;;;;;;;;;;;;17.34;50.97;100795.84;10328709;28;1897;-70
2023/11/22 04:01:47;;;;;;;;;;;;;;;17.33;50.89;100796.75;10328503;28;894;-70
2023/11/22 04:06:43;;;;;;;;;;;;;;;17.35;50.89;100819.53;10328963;28;1003;-70
2023/11/22 04:11:39;;;;;;;;;;;;;;;17.35;50.48;100823.94;10328272;28;872;-70
2023/11/22 04:16:36;;;;;;;;;;;;;;;17.35;50.75;100845.88;10326835;28;1955;-70
2023/11/22 04:21:32;;;;;;;;;;;;;;;17.35;50.58;100861.69;10327703;28;986;-70
2023/11/22 04:26:27;;;;;;;;;;;;;;;17.38;50.74;100887.13;10327560;28;841;-70
2023/11/22 04:31:23;;;;;;;;;;;;;;;17.35;50.65;100893.31;10327342;28;826;-70
2023/11/22 04:36:19;;;;;;;;;;;;;;;17.36;50.73;100883.63;10327069;28;1918;-71
2023/11/22 04:41:15;;;;;;;;;;;;;;;17.40;50.30;100880.91;10327565;28;838;-71
2023/11/22 04:46:11;;;;;;;;;;;;;;;17.47;50.40;100876.34;10326712;28;984;-71
2023/11/22 04:51:07;;;;;;;;;;;;;;;17.45;50.23;100867.63;10326800;28;799;-70
2023/11/22 04:56:05;;;;;;;;;;;;;;;17.50;50.00;100865.72;10326404;28;1956;-70
2023/11/22 05:01:01;;;;;;;;;;;;;;;17.51;50.06;100855.16;10326280;28;813;-70
2023/11/22 05:05:57;;;;;;;;;;;;;;;17.50;50.30;100844.63;10326198;28;912;-70
2023/11/22 05:10:54;;;;;;;;;;;;;;;17.54;49.97;100856.84;10326903;28;830;-70
2023/11/22 05:15:50;;;;;;;;;;;;;;;17.54;50.14;100856.84;10325819;28;1894;-70
2023/11/22 05:20:48;;;;;;;;;;;;;;;17.57;50.03;100872.56;10325756;28;877;-70
2023/11/22 05:25:44;;;;;;;;;;;;;;;17.62;49.92;100886.50;10325257;28;898;-71
2023/11/22 05:30:39;;;;;;;;;;;;;;;17.62;49.98;100896.19;10325491;28;949;-70
2023/11/22 05:35:35;;;;;;;;;;;;;;;17.63;49.85;100895.28;10325961;28;1910;-70
2023/11/22 05:40:32;;;;;;;;;;;;;;;17.66;50.10;100904.00;10325263;28;1329;-71
2023/11/22 05:45:28;;;;;;;;;;;;;;;17.63;49.78;100933.09;10325299;28;866;-70
2023/11/22 05:50:24;;;;;;;;;;;;;;;17.66;49.61;100929.50;10325708;28;898;-71
2023/11/22 05:55:20;;;;;;;;;;;;;;;17.71;49.67;100919.69;10324894;28;1906;-71
2023/11/22 06:00:16;;;;;;;;;;;;;;;17.66;49.84;100908.41;10324294;28;1014;-71
2023/11/22 06:05:12;;;;;;;;;;;;;;;17.67;49.79;100910.16;10324877;28;882;-71
2023/11/22 06:10:08;;;;;;;;;;;;;;;17.71;49.57;100917.94;10324772;28;811;-70
2023/11/22 06:15:04;;;;;;;;;;;;;;;17.65;49.76;100918.06;10325179;28;1898;-71
2023/11/22 06:20:00;;;;;;;;;;;;;;;17.69;49.62;100911.84;10325232;28;888;-71
2023/11/22 06:24:56;;;;;;;;;;;;;;;17.73;49.60;100915.25;10323878;28;893;-71
2023/11/22 06:29:52;;;;;;;;;;;;;;;17.73;49.44;100931.94;10325304;28;858;-71
2023/11/22 06:34:48;;;;;;;;;;;;;;;17.75;49.61;100935.41;10324483;28;1910;-71
2023/11/22 06:39:44;;;;;;;;;;;;;;;17.77;49.41;100931.88;10329876;28;859;-71
2023/11/22 06:44:40;;;;;;;;;;;;;;;17.80;49.48;100931.84;10331751;28;872;-72
2023/11/22 06:49:36;;;;;;;;;;;;;;;17.80;49.17;100929.19;10331405;28;846;-71
2023/11/22 06:54:32;;;;;;;;;;;;;;;17.83;49.44;100926.50;10330825;28;1955;-71
2023/11/22 06:59:28;;;;;;;;;;;;;;;17.77;49.49;100931.88;10330449;28;912;-71
2023/11/22 07:04:23;;;;;;;;;;;;;;;17.79;49.25;100927.41;10314141;28;775;-71
2023/11/22 07:09:19;;;;;;;;;;;;;;;17.81;49.29;100929.16;10331277;28;889;-71
2023/11/22 07:14:16;;;;;;;;;;;;;;;17.80;49.42;100921.28;10330426;28;1979;-71
2023/11/22 07:19:12;;;;;;;;;;;;;;;17.75;49.78;100926.63;10329961;28;855;-68
2023/11/22 07:24:08;;;;;;;;;;;;;;;17.57;49.94;100933.22;10329451;28;881;-68
2023/11/22 07:29:06;;;;;;;;;;;;;;;17.50;49.58;100947.44;10330542;28;786;-68
2023/11/22 07:34:01;;;;;;;;;;;;;;;17.43;49.35;100961.69;10329624;28;1981;-68
2023/11/22 07:38:57;;;;;;;;;;;;;;;17.45;49.12;100999.41;10329188;28;768;-71
2023/11/22 07:43:53;;;;;;;;;;;;;;;17.45;49.18;101002.91;10329390;28;860;-71
2023/11/22 07:48:49;;;;;;;;;;;;;;;17.51;49.03;101005.41;10329593;28;778;-71
2023/11/22 07:53:45;;;;;;;;;;;;;;;17.56;48.96;101010.59;10328912;28;1883;-71
2023/11/22 07:58:41;;;;;;;;;;;;;;;17.53;49.00;101006.25;10328159;28;882;-71
2023/11/22 08:03:37;;;;;;;;;;;;;;;17.60;49.06;101006.09;10328582;28;778;-71
2023/11/22 08:08:38;;;;;;;;;;;;;;;17.65;49.12;100997.19;10328532;28;849;-72
2023/11/22 08:13:34;;;;;;;;;;;;;;;17.68;49.03;100962.84;10328001;28;1898;-71
2023/11/22 08:18:30;;;;;;;;;;;;;;;17.71;49.04;100946.06;10327917;28;863;-72
2023/11/22 08:23:26;;;;;;;;;;;;;;;17.69;49.23;100953.16;10328340;28;876;-72
2023/11/22 08:28:22;;;;;;;;;;;;;;;17.74;49.06;100951.28;10328077;28;875;-71
2023/11/22 08:33:18;;;;;;;;;;;;;;;17.73;48.93;100974.13;10327497;28;1952;-70
2023/11/22 08:38:14;;;;;;;;;;;;;;;17.73;48.95;100989.94;10326617;28;921;-71
2023/11/22 08:43:10;;;;;;;;;;;;;;;17.78;48.92;101004.81;10327623;28;944;-71
2023/11/22 08:48:06;;;;;;;;;;;;;;;17.78;48.91;101028.56;10328038;28;893;-70
2023/11/22 08:53:01;;;;;;;;;;;;;;;17.78;48.88;101039.09;10326872;28;1969;-71
2023/11/22 08:57:58;;;;;;;;;;;;;;;17.80;48.74;101048.75;10327094;28;879;-71
2023/11/22 09:02:57;;;;;;;;;;;;;;;17.79;48.91;101059.28;10325777;28;782;-70
2023/11/22 09:07:55;;;;;;;;;;;;;;;17.79;48.93;101069.84;10327368;28;1024;-70
2023/11/22 09:12:51;;;;;;;;;;;;;;;17.85;48.86;101067.09;10325982;28;1080;-70
2023/11/22 09:17:48;;;;;;;;;;;;;;;17.84;48.92;101053.06;10325761;28;1953;-71
2023/11/22 09:22:50;;;;;;;;;;;;;;;17.83;48.75;101038.13;10327033;28;814;-70
2023/11/22 09:27:47;;;;;;;;;;;;;;;17.88;48.80;101052.06;10326244;28;850;-71
2023/11/22 09:32:42;;;;;;;;;;;;;;;17.88;48.91;101035.38;10325325;28;1114;-70
2023/11/22 09:37:38;;;;;;;;;;;;;;;17.86;48.77;101043.31;10326119;28;1902;-70
2023/11/22 09:42:34;;;;;;;;;;;;;;;17.88;48.69;101027.47;10325939;28;782;-71
2023/11/22 09:47:30;;;;;;;;;;;;;;;17.87;48.72;101029.25;10325254;28;822;-70
2023/11/22 09:52:26;;;;;;;;;;;;;;;17.91;48.56;101037.94;10325750;28;858;-71
2023/11/22 09:57:22;;;;;;;;;;;;;;;17.91;48.61;101037.94;10325578;28;1889;-71
2023/11/22 10:02:18;;;;;;;;;;;;;;;17.92;48.56;101031.75;10325555;28;917;-71
2023/11/22 10:07:13;;;;;;;;;;;;;;;17.92;48.67;101034.38;10325023;28;762;-70
2023/11/22 10:12:09;;;;;;;;;;;;;;;17.92;48.62;101030.00;10328409;28;1060;-71
2023/11/22 10:17:05;;;;;;;;;;;;;;;17.94;48.58;101037.88;10332114;28;1890;-71
2023/11/22 10:22:01;;;;;;;;;;;;;;;17.91;48.56;101030.91;10332391;28;805;-71
2023/11/22 10:26:58;;;;;;;;;;;;;;;17.85;48.64;101025.78;10331677;28;908;-72
2023/11/22 10:31:54;;;;;;;;;;;;;;;17.85;48.75;101017.84;10330164;28;1049;-71
2023/11/22 10:36:50;;;;;;;;;;;;;;;17.84;48.65;101021.41;10327948;28;1907;-71
2023/11/22 10:41:46;;;;;;;;;;;;;;;17.87;48.40;101023.97;10331284;28;793;-72
2023/11/22 10:46:42;;;;;;;;;;;;;;;17.85;48.51;101027.56;10330894;28;838;-71
2023/11/22 10:51:38;;;;;;;;;;;;;;;17.85;48.47;101032.81;10331242;28;800;-71
2023/11/22 10:56:34;;;;;;;;;;;;;;;17.90;48.06;101020.41;10330471;28;1882;-71
2023/11/22 11:01:30;;;;;;;;;;;;;;;17.92;48.08;101024.72;10331338;28;770;-73
2023/11/22 11:06:27;;;;;;;;;;;;;;;17.90;48.13;101034.44;10329607;28;1071;-73
2023/11/22 11:11:23;;;;;;;;;;;;;;;17.96;47.96;101039.56;10330233;28;1164;-71
2023/11/22 11:16:19;;;;;;;;;;;;;;;17.99;48.00;101022.81;10329764;28;1890;-71
2023/11/22 11:21:15;;;;;;;;;;;;;;;17.99;47.84;101020.16;10330701;28;885;-71
2023/11/22 11:26:11;;;;;;;;;;;;;;;18.02;48.18;101028.00;10328805;28;853;-71
2023/11/22 11:31:06;;;;;;;;;;;;;;;18.05;48.00;101019.16;10329080;28;996;-71
2023/11/22 11:36:06;;;;;;;;;;;;;;;18.05;48.23;101013.88;10329103;28;1910;-72
2023/11/22 11:41:02;;;;;;;;;;;;;;;18.08;47.85;101005.91;10329186;28;940;-71
2023/11/22 11:45:58;;;;;;;;;;;;;;;18.09;47.83;101003.22;10328267;28;877;-75
2023/11/22 11:50:54;;;;;;;;;;;;;;;18.11;48.16;101011.09;10329080;28;918;-71
2023/11/22 11:55:52;;;;;;;;;;;;;;;18.17;47.80;101000.38;10328426;28;1893;-71
2023/11/22 12:00:48;;;;;;;;;;;;;;;18.20;47.92;100994.16;10328987;28;879;-71
2023/11/22 12:05:45;;;;;;;;;;;;;;;18.27;47.75;100987.84;10328054;28;905;-71
2023/11/22 12:10:41;;;;;;;;;;;;;;;18.39;47.79;100955.81;10328575;28;845;-71
2023/11/22 12:15:37;;;;;;;;;;;;;;;18.33;48.16;100926.94;10327568;28;1890;-71
2023/11/22 12:20:33;;;;;;;;;;;;;;;18.35;48.07;100917.22;10328175;28;807;-71
2023/11/22 12:25:29;;;;;;;;;;;;;;;18.44;47.71;100872.09;10327739;28;795;-73
2023/11/22 12:30:24;;;;;;;;;;;;;;;18.42;47.83;100867.75;10327211;28;1084;-71
2023/11/22 12:35:20;;;;;;;;;;;;;;;18.45;47.76;100862.41;10326378;28;1910;-71
2023/11/22 12:40:17;;;;;;;;;;;;;;;18.46;47.75;100843.00;10326157;28;897;-71
2023/11/22 12:45:13;;;;;;;;;;;;;;;18.48;47.64;100851.75;10327612;28;850;-71
2023/11/22 12:50:09;;;;;;;;;;;;;;;18.57;47.59;100852.34;10326795;28;834;-71
2023/11/22 12:55:07;;;;;;;;;;;;;;;18.65;47.43;100848.63;10327100;28;1894;-74
2023/11/22 13:00:05;;;;;;;;;;;;;;;18.69;47.52;100848.50;10326319;28;798;-71
2023/11/22 13:05:01;;;;;;;;;;;;;;;18.74;47.28;100835.16;10326833;28;810;-71
2023/11/22 13:09:57;;;;;;;;;;;;;;;18.74;47.28;100820.16;10326710;28;861;-71
2023/11/22 13:14:53;;;;;;;;;;;;;;;18.73;47.13;100804.34;10325912;28;1961;-71
2023/11/22 13:19:49;;;;;;;;;;;;;;;18.75;47.18;100845.69;10325170;28;1091;-72
2023/11/22 13:24:46;;;;;;;;;;;;;;;18.78;47.25;100847.38;10324292;28;1231;-71
2023/11/22 13:29:43;;;;;;;;;;;;;;;18.74;47.25;100843.09;10325834;28;838;-71
2023/11/22 13:34:39;;;;;;;;;;;;;;;18.62;47.69;100845.16;10325145;28;1898;-67
2023/11/22 13:39:36;;;;;;;;;;;;;;;18.50;47.75;100839.41;10324975;28;951;-67
2023/11/22 13:44:31;;;;;;;;;;;;;;;18.45;47.70;100850.06;10325160;28;879;-71
2023/11/22 13:49:27;;;;;;;;;;;;;;;18.44;47.62;100856.25;10324705;28;844;-71
2023/11/22 13:54:23;;;;;;;;;;;;;;;18.46;47.82;100864.13;10325177;28;1894;-71
2023/11/22 13:59:19;;;;;;;;;;;;;;;18.40;47.84;100851.97;10324860;28;933;-71
2023/11/22 14:04:15;;;;;;;;;;;;;;;18.35;47.93;100845.97;10324953;28;791;-72
2023/11/22 14:09:12;;;;;;;;;;;;;;;18.35;47.79;100836.25;10324672;28;826;-71
2023/11/22 14:14:09;;;;;;;;;;;;;;;18.38;47.96;100848.50;10324431;28;1943;-71
2023/11/22 14:19:05;;;;;;;;;;;;;;;18.36;48.01;100847.69;10324771;28;867;-71
2023/11/22 14:24:01;;;;;;;;;;;;;;;18.35;48.02;100860.03;10325093;28;755;-71
2023/11/22 14:28:57;;;;;;;;;;;;;;;18.36;48.20;100876.72;10324233;28;873;-71
2023/11/22 14:33:53;;;;;;;;;;;;;;;18.32;48.01;100883.00;10325166;28;1976;-71
2023/11/22 14:38:54;;;;;;;;;;;;;;;18.24;48.27;100875.28;10324792;28;777;-71
2023/11/22 14:43:50;;;;;;;;;;;;;;;18.15;48.32;100879.03;10324490;28;872;-71
2023/11/22 14:48:48;;;;;;;;;;;;;;;18.09;48.40;100873.94;10323884;28;900;-71
2023/11/22 14:53:44;;;;;;;;;;;;;;;18.04;48.79;100888.16;10323643;28;1958;-70
2023/11/22 14:58:40;;;;;;;;;;;;;;;18.01;48.66;100872.41;10326143;28;878;-71
2023/11/22 15:03:36;;;;;;;;;;;;;;;17.95;48.82;100866.38;10330145;28;878;-68
2023/11/22 15:08:33;;;;;;;;;;;;;;;17.77;49.14;100863.31;10331181;28;810;-68
2023/11/22 15:13:29;;;;;;;;;;;;;;;17.78;48.60;100849.22;10328266;28;1894;-71
2023/11/22 15:18:27;;;;;;;;;;;;;;;17.90;48.00;100854.22;10329748;28;927;-71
2023/11/22 15:23:23;;;;;;;;;;;;;;;17.94;47.85;100862.00;10330003;28;887;-71
2023/11/22 15:28:22;;;;;;;;;;;;;;;17.90;48.06;100870.06;10329946;28;866;-71
2023/11/22 15:33:18;;;;;;;;;;;;;;;17.95;47.71;100876.06;10329536;28;1918;-71
2023/11/22 15:38:14;;;;;;;;;;;;;;;17.92;47.79;100881.41;10329547;28;880;-68
2023/11/22 15:43:11;;;;;;;;;;;;;;;17.94;47.66;100892.78;10329683;28;842;-71
2023/11/22 15:48:07;;;;;;;;;;;;;;;17.99;47.47;100892.69;10328500;28;924;-72
2023/11/22 15:53:03;;;;;;;;;;;;;;;18.05;47.32;100889.88;10329270;28;907;-68
2023/11/22 15:57:59;;;;;;;;;;;;;;;17.90;47.64;100868.28;10328228;28;1955;-68
2023/11/22 16:02:55;;;;;;;;;;;;;;;17.96;47.44;100859.31;10328271;28;1448;-71
2023/11/22 16:07:51;;;;;;;;;;;;;;;18.03;47.36;100842.44;10327833;28;881;-71
2023/11/22 16:12:47;;;;;;;;;;;;;;;18.06;47.29;100836.22;10327731;28;1133;-71
2023/11/22 16:17:43;;;;;;;;;;;;;;;18.06;47.30;100845.00;10327289;28;1969;-71
2023/11/22 16:22:39;;;;;;;;;;;;;;;18.06;47.34;100845.00;10327576;28;832;-71
2023/11/22 16:27:35;;;;;;;;;;;;;;;18.07;47.29;100822.97;10328234;28;862;-72
2023/11/22 16:32:31;;;;;;;;;;;;;;;18.09;47.25;100822.94;10327491;28;1085;-71
2023/11/22 16:37:27;;;;;;;;;;;;;;;18.07;47.43;100799.22;10327123;28;1918;-71
2023/11/22 16:42:23;;;;;;;;;;;;;;;18.09;47.74;100797.41;10327831;28;886;-71
2023/11/22 16:47:19;;;;;;;;;;;;;;;18.11;47.48;100802.66;10326680;28;944;-71
2023/11/22 16:52:15;;;;;;;;;;;;;;;18.13;47.33;100816.66;10327153;28;865;-71
2023/11/22 16:57:15;;;;;;;;;;;;;;;18.14;47.52;100811.34;10326282;28;1957;-71
2023/11/22 17:02:12;;;;;;;;;;;;;;;18.13;47.66;100811.38;10326699;28;1697;-71
2023/11/22 17:07:08;;;;;;;;;;;;;;;18.15;47.41;100805.13;10326580;28;839;-71
2023/11/22 17:12:03;;;;;;;;;;;;;;;18.17;47.41;100795.41;10326455;28;803;-71
2023/11/22 17:16:59;;;;;;;;;;;;;;;18.19;47.46;100792.75;10326464;28;1972;-71
2023/11/22 17:21:56;;;;;;;;;;;;;;;18.15;47.46;100778.75;10325276;28;1225;-71
2023/11/22 17:26:52;;;;;;;;;;;;;;;18.16;47.21;100779.66;10326467;28;874;-71
2023/11/22 17:31:48;;;;;;;;;;;;;;;18.14;47.42;100774.41;10326607;28;819;-71
2023/11/22 17:36:45;;;;;;;;;;;;;;;18.16;47.44;100764.69;10325928;28;1914;-71
2023/11/22 17:41:41;;;;;;;;;;;;;;;18.17;47.44;100763.75;10325613;28;818;-71
2023/11/22 17:46:40;;;;;;;;;;;;;;;18.20;47.20;100756.66;10326082;28;909;-71
2023/11/22 17:51:36;;;;;;;;;;;;;;;18.17;47.42;100750.56;10325954;28;857;-70
2023/11/22 17:56:31;;;;;;;;;;;;;;;18.18;47.56;100738.22;10325812;28;1955;-71
2023/11/22 18:01:28;;;;;;;;;;;;;;;18.18;47.38;100732.94;10325686;28;829;-71
2023/11/22 18:06:24;;;;;;;;;;;;;;;18.17;47.36;100740.00;10324958;28;892;-71
2023/11/22 18:11:20;;;;;;;;;;;;;;;18.18;47.28;100738.22;10325434;28;845;-71
2023/11/22 18:16:16;;;;;;;;;;;;;;;18.12;47.32;100744.53;10324742;28;1983;-71
2023/11/22 18:21:13;;;;;;;;;;;;;;;18.10;47.40;100742.84;10324689;28;900;-71
2023/11/22 18:26:09;;;;;;;;;;;;;;;18.16;47.18;100735.66;10324525;28;973;-71
2023/11/22 18:31:06;;;;;;;;;;;;;;;18.18;47.13;100733.84;10324491;28;1209;-70
2023/11/22 18:36:02;;;;;;;;;;;;;;;18.17;47.22;100723.31;10331404;28;1972;-71
2023/11/22 18:41:03;;;;;;;;;;;;;;;18.20;47.02;100731.13;10331328;28;826;-70
2023/11/22 18:46:03;;;;;;;;;;;;;;;18.22;47.15;100731.09;10331767;28;895;-70
2023/11/22 18:50:59;;;;;;;;;;;;;;;18.22;47.19;100733.75;10331738;28;829;-70
2023/11/22 18:55:55;;;;;;;;;;;;;;;18.19;47.16;100745.25;10331281;28;1901;-71
2023/11/22 19:00:51;;;;;;;;;;;;;;;18.18;47.09;100723.28;10331815;28;892;-71
2023/11/22 19:05:47;;;;;;;;;;;;;;;18.18;47.21;100723.28;10330989;28;834;-70
2023/11/22 19:10:42;;;;;;;;;;;;;;;18.20;46.99;100711.81;10332017;28;763;-71
2023/11/22 19:15:38;;;;;;;;;;;;;;;18.21;46.84;100705.59;10331149;28;1955;-71
2023/11/22 19:20:34;;;;;;;;;;;;;;;18.18;46.99;100681.06;10330551;28;862;-70
2023/11/22 19:25:32;;;;;;;;;;;;;;;18.22;47.10;100691.53;10330913;28;842;-71
2023/11/22 19:30:28;;;;;;;;;;;;;;;18.22;46.93;100689.72;10330111;28;909;-71
2023/11/22 19:35:24;;;;;;;;;;;;;;;18.19;47.01;100697.75;10329998;28;1895;-70
2023/11/22 19:40:20;;;;;;;;;;;;;;;18.23;46.78;100709.94;10330307;28;880;-70
2023/11/22 19:45:16;;;;;;;;;;;;;;;18.24;46.85;100722.22;10329076;28;817;-71
2023/11/22 19:50:12;;;;;;;;;;;;;;;18.22;46.87;100716.13;10329366;28;772;-70
2023/11/22 19:55:08;;;;;;;;;;;;;;;18.24;46.93;100706.41;10329054;28;1897;-71
2023/11/22 20:00:04;;;;;;;;;;;;;;;18.26;46.89;100719.53;10329502;28;850;-71
2023/11/22 20:05:00;;;;;;;;;;;;;;;18.23;47.03;100727.53;10328884;28;865;-71
2023/11/22 20:09:56;;;;;;;;;;;;;;;18.23;47.00;100690.59;10329136;28;869;-71
2023/11/22 20:14:52;;;;;;;;;;;;;;;18.20;46.98;100670.44;10329308;28;1955;-71
2023/11/22 20:19:48;;;;;;;;;;;;;;;18.16;46.89;100676.75;10328737;28;1575;-70
2023/11/22 20:24:44;;;;;;;;;;;;;;;18.16;46.70;100677.59;10327899;28;867;-71
2023/11/22 20:29:40;;;;;;;;;;;;;;;18.15;46.83;100678.50;10328313;28;794;-71
2023/11/22 20:34:36;;;;;;;;;;;;;;;18.14;46.69;100679.41;10327794;28;1914;-71
2023/11/22 20:39:32;;;;;;;;;;;;;;;18.10;46.96;100683.06;10327306;28;872;-71
2023/11/22 20:44:28;;;;;;;;;;;;;;;18.07;46.62;100690.19;10327045;28;930;-71
2023/11/22 20:49:25;;;;;;;;;;;;;;;18.02;46.84;100669.22;10326927;28;837;-71
2023/11/22 20:54:21;;;;;;;;;;;;;;;18.00;46.89;100691.28;10326299;28;1898;-71
2023/11/22 20:59:17;;;;;;;;;;;;;;;17.98;47.02;100679.91;10325951;28;995;-71
2023/11/22 21:04:13;;;;;;;;;;;;;;;17.93;46.93;100678.28;10326913;28;887;-71
2023/11/22 21:09:10;;;;;;;;;;;;;;;17.93;46.63;100658.94;10326293;28;775;-70
2023/11/22 21:14:06;;;;;;;;;;;;;;;17.94;46.67;100671.22;10325436;28;1906;-71
2023/11/22 21:19:02;;;;;;;;;;;;;;;17.90;46.61;100665.19;10325949;28;794;-71
2023/11/22 21:23:58;;;;;;;;;;;;;;;17.89;46.66;100673.13;10326200;28;1606;-71
2023/11/22 21:28:54;;;;;;;;;;;;;;;17.87;46.52;100657.34;10325890;28;965;-71
2023/11/22 21:33:50;;;;;;;;;;;;;;;17.85;46.73;100645.97;10325522;28;1977;-71
2023/11/22 21:38:46;;;;;;;;;;;;;;;17.82;46.50;100642.59;10324986;28;880;-70
2023/11/22 21:43:42;;;;;;;;;;;;;;;17.80;46.57;100641.75;10325390;28;977;-71
2023/11/22 21:48:38;;;;;;;;;;;;;;;17.75;46.51;100641.84;10325366;28;885;-71
2023/11/22 21:53:33;;;;;;;;;;;;;;;17.72;46.56;100641.94;10325729;28;1951;-71
2023/11/22 21:58:29;;;;;;;;;;;;;;;17.70;46.48;100630.56;10325160;28;984;-70
2023/11/22 22:03:25;;;;;;;;;;;;;;;17.69;46.20;100636.75;10306987;28;809;-71
2023/11/22 22:08:21;;;;;;;;;;;;;;;17.63;46.08;100619.34;10329633;28;838;-71
2023/11/22 22:13:19;;;;;;;;;;;;;;;17.61;46.20;100612.38;10333105;28;826;-71
2023/11/22 22:18:15;;;;;;;;;;;;;;;17.56;45.75;100601.13;10332723;28;1894;-70
2023/11/22 22:23:11;;;;;;;;;;;;;;;17.53;45.82;100594.16;10332136;28;806;-70
2023/11/22 22:28:08;;;;;;;;;;;;;;;17.50;46.37;100581.94;10332346;28;755;-71
2023/11/22 22:33:03;;;;;;;;;;;;;;;17.50;46.25;100573.13;10332470;28;1120;-71
2023/11/22 22:37:59;;;;;;;;;;;;;;;17.49;45.59;100574.06;10332112;28;1918;-70
2023/11/22 22:42:55;;;;;;;;;;;;;;;17.47;45.96;100544.22;10331909;28;771;-71
2023/11/22 22:47:51;;;;;;;;;;;;;;;17.45;46.06;100540.81;10331754;28;807;-71
2023/11/22 22:52:47;;;;;;;;;;;;;;;17.46;46.08;100534.63;10332137;28;952;-71
2023/11/22 22:57:43;;;;;;;;;;;;;;;17.54;44.83;100548.44;10331256;28;1957;-70
2023/11/22 23:02:39;;;;;;;;;;;;;;;17.45;45.31;100525.84;10331240;28;770;-71
2023/11/22 23:07:35;;;;;;;;;;;;;;;17.46;46.14;100522.28;10331590;28;811;-71
2023/11/22 23:12:31;;;;;;;;;;;;;;;17.47;45.88;100520.50;10331390;28;851;-71
2023/11/22 23:17:27;;;;;;;;;;;;;;;17.48;45.04;100512.56;10330275;28;1910;-71
2023/11/22 23:22:24;;;;;;;;;;;;;;;17.47;44.84;100504.69;10329750;28;970;-71
2023/11/22 23:27:20;;;;;;;;;;;;;;;17.46;45.26;100513.53;10330183;28;853;-71
2023/11/22 23:32:16;;;;;;;;;;;;;;;17.46;45.73;100498.56;10329511;28;1023;-71
2023/11/22 23:37:11;;;;;;;;;;;;;;;17.47;45.46;100496.78;10329764;28;1922;-71
2023/11/22 23:42:13;;;;;;;;;;;;;;;17.46;45.51;100487.16;10330768;28;775;-71
2023/11/22 23:47:09;;;;;;;;;;;;;;;17.46;45.65;100487.16;10329763;28;856;-71
2023/11/22 23:52:05;;;;;;;;;;;;;;;17.46;46.03;100481.91;10329857;28;950;-71
2023/11/22 23:57:01;;;;;;;;;;;;;;;17.46;44.92;100477.50;10329404;28;1973;-70
